Time;durP1;ratioP1;P1;durP2;ratioP2;P2;SDS_P1;SDS_P2;PMS_P1;PMS_P2;Temp;Humidity;BMP_temperature;BMP_pressure;BME280_temperature;BME280_humidity;BME280_pressure;Samples;Min_cycle;Max_cycle;Signal;HPM_P1;HPM_P2
2021/07/10 00:01:27;;;;;;;;;;;17.40;99.90;;;;;;5096007;28;19924;-76
2021/07/10 00:03:53;;;;;;;;;;;17.30;99.90;;;;;;5096044;28;19924;-76
2021/07/10 00:06:20;;;;;;;;;;;17.30;99.90;;;;;;5095889;28;19924;-76
2021/07/10 00:08:48;;;;;;;;;;;17.30;99.90;;;;;;5096045;28;20344;-76
2021/07/10 00:11:15;;;;;;;;;;;17.30;99.90;;;;;;5095742;28;19935;-76
2021/07/10 00:13:42;;;;;;;;;;;17.30;99.90;;;;;;5095981;28;20295;-76
2021/07/10 00:16:10;;;;;;;;;;;17.30;99.90;;;;;;5095746;28;19939;-75
2021/07/10 00:18:36;;;;;;;;;;;17.30;99.90;;;;;;5095356;28;20027;-75
2021/07/10 00:21:03;;;;;;;;;;;17.30;99.90;;;;;;5095475;28;19924;-76
2021/07/10 00:23:30;;;;;;;;;;;17.30;99.90;;;;;;5095422;28;19924;-76
2021/07/10 00:25:58;;;;;;;;;;;17.30;99.90;;;;;;5095464;28;19934;-75
2021/07/10 00:28:25;;;;;;;;;;;17.30;99.90;;;;;;5095541;28;19924;-76
2021/07/10 00:30:52;;;;;;;;;;;17.30;99.90;;;;;;5095565;28;20340;-76
2021/07/10 00:33:19;;;;;;;;;;;17.30;99.90;;;;;;5095409;28;19924;-72
2021/07/10 00:35:46;;;;;;;;;;;17.30;99.90;;;;;;5095506;28;19924;-71
2021/07/10 00:38:12;;;;;;;;;;;17.30;99.90;;;;;;5095209;28;19924;-71
2021/07/10 00:40:39;;;;;;;;;;;17.30;99.90;;;;;;5095485;28;19924;-71
2021/07/10 00:43:08;;;;;;;;;;;17.30;99.90;;;;;;5095175;28;19934;-71
2021/07/10 00:45:34;;;;;;;;;;;17.30;99.90;;;;;;5095282;28;19935;-71
2021/07/10 00:48:01;;;;;;;;;;;17.30;99.90;;;;;;5095344;28;20384;-71
2021/07/10 00:50:28;;;;;;;;;;;17.30;99.90;;;;;;5095102;28;19935;-71
2021/07/10 00:52:55;;;;;;;;;;;17.20;99.90;;;;;;5095109;28;19924;-71
2021/07/10 00:55:22;;;;;;;;;;;17.20;99.90;;;;;;5095599;28;19924;-71
2021/07/10 00:57:49;;;;;;;;;;;17.20;99.90;;;;;;5095015;28;19924;-71
2021/07/10 01:00:18;;;;;;;;;;;17.20;99.90;;;;;;5095018;28;19924;-71
2021/07/10 01:02:44;;;;;;;;;;;17.20;99.90;;;;;;5095081;28;20291;-71
2021/07/10 01:05:12;;;;;;;;;;;17.20;99.90;;;;;;5095125;28;19934;-71
2021/07/10 01:07:39;;;;;;;;;;;17.20;99.90;;;;;;5095169;28;19928;-71
2021/07/10 01:10:07;;;;;;;;;;;17.10;99.90;;;;;;5095068;28;19974;-71
2021/07/10 01:12:33;;;;;;;;;;;17.20;99.90;;;;;;5095032;28;19924;-71
2021/07/10 01:15:00;;;;;;;;;;;17.20;99.90;;;;;;5094812;28;19933;-71
2021/07/10 01:17:29;;;;;;;;;;;17.20;99.90;;;;;;5095025;28;19930;-71
2021/07/10 01:19:58;;;;;;;;;;;17.20;99.90;;;;;;5091106;28;20428;-71
2021/07/10 01:22:27;;;;;;;;;;;17.10;99.90;;;;;;5096113;28;19924;-71
2021/07/10 01:24:54;;;;;;;;;;;17.10;99.90;;;;;;5098938;28;19932;-71
2021/07/10 01:27:21;;;;;;;;;;;17.10;99.90;;;;;;5098811;28;20264;-71
2021/07/10 01:29:48;;;;;;;;;;;17.10;99.90;;;;;;5099068;28;19934;-71
2021/07/10 01:32:17;;;;;;;;;;;17.10;99.90;;;;;;5098676;28;19924;-71
2021/07/10 01:34:44;;;;;;;;;;;17.10;99.90;;;;;;5098505;28;19985;-71
2021/07/10 01:37:11;;;;;;;;;;;17.10;99.90;;;;;;5098795;28;19928;-71
2021/07/10 01:39:39;;;;;;;;;;;17.00;99.90;;;;;;5098665;28;20041;-71
2021/07/10 01:42:06;;;;;;;;;;;17.00;99.90;;;;;;5098319;28;19924;-71
2021/07/10 01:44:33;;;;;;;;;;;17.00;99.90;;;;;;5098527;28;20275;-71
2021/07/10 01:47:00;;;;;;;;;;;17.00;99.90;;;;;;5098345;28;20279;-71
2021/07/10 01:49:27;;;;;;;;;;;17.00;99.90;;;;;;5098490;28;19931;-71
2021/07/10 01:51:53;;;;;;;;;;;17.00;99.90;;;;;;5098514;28;19934;-71
2021/07/10 01:54:21;;;;;;;;;;;17.00;99.90;;;;;;5098392;28;19934;-71
2021/07/10 01:56:49;;;;;;;;;;;17.00;99.90;;;;;;5098297;28;19924;-70
2021/07/10 01:59:16;;;;;;;;;;;17.00;99.90;;;;;;5098315;28;19935;-71
2021/07/10 02:01:46;;;;;;;;;;;17.00;99.90;;;;;;5098159;28;20302;-71
2021/07/10 02:04:15;;;;;;;;;;;16.90;99.90;;;;;;5098272;28;19924;-71
2021/07/10 02:06:42;;;;;;;;;;;16.90;99.90;;;;;;5098270;28;19930;-71
2021/07/10 02:09:09;;;;;;;;;;;16.90;99.90;;;;;;5098385;28;19924;-71
2021/07/10 02:11:36;;;;;;;;;;;16.90;99.90;;;;;;5097978;28;19931;-71
2021/07/10 02:14:04;;;;;;;;;;;16.90;99.90;;;;;;5097991;28;19931;-71
2021/07/10 02:16:31;;;;;;;;;;;16.90;99.90;;;;;;5098096;28;19939;-71
2021/07/10 02:18:58;;;;;;;;;;;16.90;99.90;;;;;;5098247;28;19924;-71
2021/07/10 02:21:25;;;;;;;;;;;16.90;99.90;;;;;;5097996;28;19931;-71
2021/07/10 02:23:52;;;;;;;;;;;16.80;99.90;;;;;;5097897;28;19935;-75
2021/07/10 02:26:19;;;;;;;;;;;16.90;99.90;;;;;;5097734;28;19924;-74
2021/07/10 02:28:46;;;;;;;;;;;16.80;99.90;;;;;;5097756;28;20302;-75
2021/07/10 02:31:14;;;;;;;;;;;16.80;99.90;;;;;;5097667;28;19924;-74
2021/07/10 02:33:41;;;;;;;;;;;16.90;99.90;;;;;;5096438;28;19924;-74
2021/07/10 02:36:07;;;;;;;;;;;16.90;99.90;;;;;;5097614;28;19924;-75
2021/07/10 02:38:34;;;;;;;;;;;16.90;99.90;;;;;;5097324;28;19934;-74
2021/07/10 02:41:01;;;;;;;;;;;16.90;99.90;;;;;;5097550;28;19928;-74
2021/07/10 02:43:28;;;;;;;;;;;16.90;99.90;;;;;;5097328;28;19924;-74
2021/07/10 02:45:55;;;;;;;;;;;16.90;99.90;;;;;;5096870;28;20233;-75
2021/07/10 02:48:23;;;;;;;;;;;16.90;99.90;;;;;;5097127;28;19935;-74
2021/07/10 02:50:50;;;;;;;;;;;16.90;99.90;;;;;;5097591;28;19924;-74
2021/07/10 02:53:17;;;;;;;;;;;16.80;99.90;;;;;;5097177;28;20348;-74
2021/07/10 02:55:44;;;;;;;;;;;16.80;99.90;;;;;;5097060;28;19924;-74
2021/07/10 02:58:10;;;;;;;;;;;16.70;99.90;;;;;;5097112;28;19936;-74
2021/07/10 03:00:37;;;;;;;;;;;16.60;99.90;;;;;;5097261;28;19935;-74
2021/07/10 03:03:04;;;;;;;;;;;16.60;99.90;;;;;;5097216;28;19924;-74
2021/07/10 03:05:33;;;;;;;;;;;16.60;99.90;;;;;;5097269;28;19924;-74
2021/07/10 03:08:00;;;;;;;;;;;16.50;99.90;;;;;;5096711;28;19928;-74
2021/07/10 03:10:28;;;;;;;;;;;16.50;99.90;;;;;;5097111;28;19924;-74
2021/07/10 03:12:55;;;;;;;;;;;16.40;99.90;;;;;;5096782;28;19931;-74
2021/07/10 03:15:22;;;;;;;;;;;16.40;99.90;;;;;;5096930;28;19997;-75
2021/07/10 03:17:49;;;;;;;;;;;16.30;99.90;;;;;;5096642;28;19924;-74
2021/07/10 03:20:16;;;;;;;;;;;16.30;99.90;;;;;;5096581;28;19924;-74
2021/07/10 03:22:44;;;;;;;;;;;16.20;99.90;;;;;;5096411;28;19928;-74
2021/07/10 03:25:11;;;;;;;;;;;16.10;99.90;;;;;;5096679;28;19924;-74
2021/07/10 03:27:38;;;;;;;;;;;16.10;99.90;;;;;;5096620;28;19934;-74
2021/07/10 03:30:06;;;;;;;;;;;16.10;99.90;;;;;;5096581;28;19947;-74
2021/07/10 03:32:32;;;;;;;;;;;16.20;99.90;;;;;;5096544;28;19943;-74
2021/07/10 03:34:59;;;;;;;;;;;16.10;99.90;;;;;;5096666;28;19924;-74
2021/07/10 03:37:26;;;;;;;;;;;16.10;99.90;;;;;;5096516;28;20356;-74
2021/07/10 03:39:54;;;;;;;;;;;16.10;99.90;;;;;;5096094;28;19928;-75
2021/07/10 03:42:21;;;;;;;;;;;16.00;99.90;;;;;;5096258;28;19924;-75
2021/07/10 03:44:48;;;;;;;;;;;15.90;99.90;;;;;;5095781;28;20378;-74
2021/07/10 03:47:15;;;;;;;;;;;15.90;99.90;;;;;;5096380;28;19935;-75
2021/07/10 03:49:42;;;;;;;;;;;15.80;99.90;;;;;;5096368;28;19924;-74
2021/07/10 03:52:09;;;;;;;;;;;15.80;99.90;;;;;;5096278;28;19924;-75
2021/07/10 03:54:36;;;;;;;;;;;15.70;99.90;;;;;;5095962;28;20264;-75
2021/07/10 03:57:04;;;;;;;;;;;15.70;99.90;;;;;;5095905;28;19932;-75
2021/07/10 03:59:31;;;;;;;;;;;15.70;99.90;;;;;;5096030;28;19924;-75
2021/07/10 04:01:58;;;;;;;;;;;15.60;99.90;;;;;;5096086;28;20292;-74
2021/07/10 04:04:25;;;;;;;;;;;15.60;99.90;;;;;;5095851;28;20332;-75
2021/07/10 04:06:51;;;;;;;;;;;15.70;99.90;;;;;;5095645;28;19934;-75
2021/07/10 04:09:18;;;;;;;;;;;15.70;99.90;;;;;;5095833;28;19924;-75
2021/07/10 04:11:45;;;;;;;;;;;15.70;99.90;;;;;;5095841;28;19924;-75
2021/07/10 04:14:13;;;;;;;;;;;15.70;99.90;;;;;;5095847;28;20356;-74
2021/07/10 04:16:40;;;;;;;;;;;15.70;99.90;;;;;;5095647;28;19924;-74
2021/07/10 04:19:07;;;;;;;;;;;15.70;99.90;;;;;;5095829;28;19947;-75
2021/07/10 04:21:34;;;;;;;;;;;15.80;99.90;;;;;;5095793;28;20376;-74
2021/07/10 04:24:00;;;;;;;;;;;15.70;99.90;;;;;;5095669;28;20276;-75
2021/07/10 04:26:27;;;;;;;;;;;15.70;99.90;;;;;;5095408;28;19924;-74
2021/07/10 04:28:54;;;;;;;;;;;15.70;99.90;;;;;;5095336;28;19924;-75
2021/07/10 04:31:22;;;;;;;;;;;15.70;99.90;;;;;;5095452;28;19924;-75
2021/07/10 04:33:49;;;;;;;;;;;15.70;99.90;;;;;;5095329;28;19924;-74
2021/07/10 04:36:16;;;;;;;;;;;15.70;99.90;;;;;;5095346;28;19931;-74
2021/07/10 04:38:43;;;;;;;;;;;15.70;99.90;;;;;;5095212;28;19938;-74
2021/07/10 04:41:10;;;;;;;;;;;15.70;99.90;;;;;;5095549;28;19950;-74
2021/07/10 04:43:37;;;;;;;;;;;15.70;99.90;;;;;;5095222;28;19932;-75
2021/07/10 04:46:04;;;;;;;;;;;15.70;99.90;;;;;;5095533;28;19924;-74
2021/07/10 04:48:32;;;;;;;;;;;15.80;99.90;;;;;;5095088;28;20362;-75
2021/07/10 04:50:59;;;;;;;;;;;15.80;99.90;;;;;;5095154;28;19934;-74
2021/07/10 04:53:26;;;;;;;;;;;15.80;99.90;;;;;;5095127;28;19947;-74
2021/07/10 04:55:53;;;;;;;;;;;15.90;99.90;;;;;;5095168;28;20454;-74
2021/07/10 04:58:19;;;;;;;;;;;15.90;99.90;;;;;;5097962;28;19931;-74
2021/07/10 05:00:46;;;;;;;;;;;16.00;99.90;;;;;;5099270;28;19935;-74
2021/07/10 05:03:13;;;;;;;;;;;16.00;99.90;;;;;;5099281;28;19928;-74
2021/07/10 05:05:41;;;;;;;;;;;16.10;99.90;;;;;;5099250;28;20352;-74
2021/07/10 05:08:08;;;;;;;;;;;16.10;99.90;;;;;;5099241;28;19935;-74
2021/07/10 05:10:35;;;;;;;;;;;16.10;99.90;;;;;;5099320;28;19924;-74
2021/07/10 05:13:02;;;;;;;;;;;16.10;99.90;;;;;;5099281;28;19938;-75
2021/07/10 05:15:29;;;;;;;;;;;16.20;99.90;;;;;;5099133;28;19924;-75
2021/07/10 05:17:55;;;;;;;;;;;16.20;99.90;;;;;;5098897;28;19923;-74
2021/07/10 05:20:22;;;;;;;;;;;16.20;99.90;;;;;;5098718;28;19924;-74
2021/07/10 05:22:50;;;;;;;;;;;16.20;99.90;;;;;;5098921;28;19950;-75
2021/07/10 05:25:17;;;;;;;;;;;16.20;99.90;;;;;;5098770;28;19924;-75
2021/07/10 05:27:44;;;;;;;;;;;16.20;99.90;;;;;;5099072;28;19939;-74
2021/07/10 05:30:12;;;;;;;;;;;16.30;99.90;;;;;;5098674;28;20340;-74
2021/07/10 05:32:38;;;;;;;;;;;16.30;99.90;;;;;;5099025;28;20278;-74
2021/07/10 05:35:06;;;;;;;;;;;16.30;99.90;;;;;;5098620;28;19930;-74
2021/07/10 05:37:33;;;;;;;;;;;16.30;99.90;;;;;;5098610;28;20337;-75
2021/07/10 05:40:01;;;;;;;;;;;16.30;99.90;;;;;;5098446;28;19928;-74
2021/07/10 05:42:28;;;;;;;;;;;16.30;99.90;;;;;;5098629;28;19924;-74
2021/07/10 05:44:55;;;;;;;;;;;16.40;99.90;;;;;;5098465;28;20344;-74
2021/07/10 05:47:22;;;;;;;;;;;16.40;99.90;;;;;;5098620;28;19924;-74
2021/07/10 05:49:48;;;;;;;;;;;16.40;99.90;;;;;;5098303;28;19924;-75
2021/07/10 05:52:15;;;;;;;;;;;16.40;99.90;;;;;;5098269;28;20259;-74
2021/07/10 05:54:42;;;;;;;;;;;16.40;99.90;;;;;;5098252;28;19935;-74
2021/07/10 05:57:10;;;;;;;;;;;16.40;99.90;;;;;;5098382;28;19924;-74
2021/07/10 05:59:38;;;;;;;;;;;16.50;99.90;;;;;;5098316;28;20256;-75
2021/07/10 06:02:07;;;;;;;;;;;16.50;99.90;;;;;;5098091;28;19934;-75
2021/07/10 06:04:34;;;;;;;;;;;16.50;99.90;;;;;;5098003;28;20242;-74
2021/07/10 06:07:01;;;;;;;;;;;16.50;99.90;;;;;;5098005;28;19928;-75
2021/07/10 06:09:27;;;;;;;;;;;16.50;99.90;;;;;;5097890;28;19924;-75
2021/07/10 06:11:54;;;;;;;;;;;16.50;99.90;;;;;;5098004;28;20279;-74
2021/07/10 06:14:22;;;;;;;;;;;16.60;99.90;;;;;;5097919;28;19923;-75
2021/07/10 06:16:49;;;;;;;;;;;16.60;99.90;;;;;;5097736;28;20366;-75
2021/07/10 06:19:16;;;;;;;;;;;16.60;99.90;;;;;;5097733;28;19928;-75
2021/07/10 06:21:43;;;;;;;;;;;16.60;99.90;;;;;;5097714;28;19923;-74
2021/07/10 06:24:10;;;;;;;;;;;16.60;99.90;;;;;;5098188;28;19924;-74
2021/07/10 06:26:37;;;;;;;;;;;16.60;99.90;;;;;;5097858;28;20025;-75
2021/07/10 06:29:03;;;;;;;;;;;16.60;99.90;;;;;;5097560;28;20377;-75
2021/07/10 06:31:32;;;;;;;;;;;16.60;99.90;;;;;;5097559;28;19924;-74
2021/07/10 06:34:00;;;;;;;;;;;16.60;99.90;;;;;;5097437;28;19930;-74
2021/07/10 06:36:27;;;;;;;;;;;16.60;99.90;;;;;;5097384;28;20304;-75
2021/07/10 06:38:53;;;;;;;;;;;16.70;99.90;;;;;;5097527;28;19924;-74
2021/07/10 06:41:20;;;;;;;;;;;16.70;99.90;;;;;;5097574;28;20336;-75
2021/07/10 06:43:47;;;;;;;;;;;16.70;99.90;;;;;;5097302;28;20352;-74
2021/07/10 06:46:14;;;;;;;;;;;16.70;99.90;;;;;;5097228;28;20356;-74
2021/07/10 06:48:42;;;;;;;;;;;16.70;99.90;;;;;;5097809;28;19924;-74
2021/07/10 06:51:09;;;;;;;;;;;16.70;99.90;;;;;;5097525;28;19924;-74
2021/07/10 06:53:36;;;;;;;;;;;16.80;99.90;;;;;;5097387;28;20390;-74
2021/07/10 06:56:03;;;;;;;;;;;16.80;99.90;;;;;;5097027;28;19931;-74
2021/07/10 06:58:30;;;;;;;;;;;16.80;99.90;;;;;;5097138;28;19935;-75
2021/07/10 07:00:56;;;;;;;;;;;16.80;99.90;;;;;;5096994;28;19928;-74
2021/07/10 07:03:23;;;;;;;;;;;16.80;99.90;;;;;;5097227;28;19935;-74
2021/07/10 07:05:51;;;;;;;;;;;16.80;99.90;;;;;;5097089;28;19934;-74
2021/07/10 07:08:18;;;;;;;;;;;16.80;99.90;;;;;;5096916;28;19924;-75
2021/07/10 07:10:45;;;;;;;;;;;16.80;99.90;;;;;;5096814;28;19924;-74
2021/07/10 07:13:12;;;;;;;;;;;16.80;99.90;;;;;;5096726;28;19973;-74
2021/07/10 07:15:39;;;;;;;;;;;16.90;99.90;;;;;;5096988;28;20001;-75
2021/07/10 07:18:06;;;;;;;;;;;16.80;99.90;;;;;;5096626;28;19989;-75
2021/07/10 07:20:33;;;;;;;;;;;16.90;99.90;;;;;;5096216;28;19924;-74
2021/07/10 07:23:01;;;;;;;;;;;16.90;99.90;;;;;;5096674;28;19934;-74
2021/07/10 07:25:30;;;;;;;;;;;16.90;99.90;;;;;;5096822;28;19935;-74
2021/07/10 07:27:57;;;;;;;;;;;17.10;99.90;;;;;;5096379;28;19990;-75
2021/07/10 07:30:23;;;;;;;;;;;17.10;99.90;;;;;;5096682;28;19934;-75
2021/07/10 07:32:50;;;;;;;;;;;17.20;99.90;;;;;;5096546;28;19924;-74
2021/07/10 07:35:17;;;;;;;;;;;17.30;99.90;;;;;;5096223;28;19935;-75
2021/07/10 07:37:44;;;;;;;;;;;17.40;99.90;;;;;;5096427;28;19924;-75
2021/07/10 07:40:14;;;;;;;;;;;17.50;99.90;;;;;;5096313;28;19924;-74
2021/07/10 07:42:41;;;;;;;;;;;17.60;99.90;;;;;;5096251;28;20277;-75
2021/07/10 07:45:08;;;;;;;;;;;17.60;99.90;;;;;;5096167;28;19931;-74
2021/07/10 07:47:35;;;;;;;;;;;17.60;99.90;;;;;;5095987;28;19981;-75
2021/07/10 07:50:02;;;;;;;;;;;17.60;99.90;;;;;;5096409;28;19939;-74
2021/07/10 07:52:29;;;;;;;;;;;17.70;99.90;;;;;;5096079;28;19924;-74
2021/07/10 07:54:56;;;;;;;;;;;17.70;99.90;;;;;;5095939;28;20345;-75
2021/07/10 07:57:24;;;;;;;;;;;17.70;99.90;;;;;;5095992;28;19924;-75
2021/07/10 07:59:51;;;;;;;;;;;17.80;99.90;;;;;;5096016;28;19935;-75
2021/07/10 08:02:18;;;;;;;;;;;17.90;99.90;;;;;;5095900;28;20360;-75
2021/07/10 08:04:44;;;;;;;;;;;18.00;99.90;;;;;;5095739;28;19924;-75
2021/07/10 08:07:11;;;;;;;;;;;18.00;99.90;;;;;;5095722;28;19924;-75
2021/07/10 08:09:38;;;;;;;;;;;18.10;99.90;;;;;;5095830;28;20244;-75
2021/07/10 08:12:05;;;;;;;;;;;18.20;99.90;;;;;;5095775;28;19935;-75
2021/07/10 08:14:33;;;;;;;;;;;18.30;99.90;;;;;;5095986;28;19965;-75
2021/07/10 08:17:00;;;;;;;;;;;18.50;99.90;;;;;;5095688;28;19931;-75
2021/07/10 08:19:27;;;;;;;;;;;18.60;99.90;;;;;;5095705;28;19924;-75
2021/07/10 08:21:54;;;;;;;;;;;18.80;99.90;;;;;;5095518;28;19924;-75
2021/07/10 08:24:21;;;;;;;;;;;18.90;99.90;;;;;;5095556;28;20360;-75
2021/07/10 08:26:48;;;;;;;;;;;18.90;99.90;;;;;;5095420;28;19924;-75
2021/07/10 08:29:14;;;;;;;;;;;18.80;99.90;;;;;;5095735;28;19924;-75
2021/07/10 08:31:43;;;;;;;;;;;18.80;99.90;;;;;;5095876;28;19924;-75
2021/07/10 08:34:09;;;;;;;;;;;18.70;99.90;;;;;;5095458;28;19924;-74
2021/07/10 08:36:36;;;;;;;;;;;18.70;99.90;;;;;;5095633;28;19938;-74
2021/07/10 08:39:05;;;;;;;;;;;18.60;99.90;;;;;;5095243;28;20344;-74
2021/07/10 08:41:32;;;;;;;;;;;18.60;99.90;;;;;;5095363;28;19939;-75
2021/07/10 08:43:59;;;;;;;;;;;18.60;99.90;;;;;;5095440;28;20304;-74
2021/07/10 08:46:26;;;;;;;;;;;18.60;99.90;;;;;;5095269;28;19934;-74
2021/07/10 08:48:54;;;;;;;;;;;18.60;99.90;;;;;;5095520;28;19924;-74
2021/07/10 08:51:21;;;;;;;;;;;18.70;99.90;;;;;;5095302;28;19924;-75
2021/07/10 08:53:47;;;;;;;;;;;18.70;99.90;;;;;;5095238;28;19924;-75
2021/07/10 08:56:14;;;;;;;;;;;18.90;99.90;;;;;;5095245;28;20333;-75
2021/07/10 08:58:41;;;;;;;;;;;18.90;99.90;;;;;;5095203;28;19934;-75
2021/07/10 09:01:08;;;;;;;;;;;19.00;99.90;;;;;;5095292;28;19924;-75
2021/07/10 09:03:35;;;;;;;;;;;19.10;99.90;;;;;;5095193;28;20268;-75
2021/07/10 09:06:03;;;;;;;;;;;19.20;99.90;;;;;;5095129;28;19927;-75
2021/07/10 09:08:30;;;;;;;;;;;19.30;99.90;;;;;;5094816;28;19924;-75
2021/07/10 09:10:58;;;;;;;;;;;19.30;99.90;;;;;;5094960;28;20356;-75
2021/07/10 09:13:32;;;;;;;;;;;19.40;99.90;;;;;;5095293;28;19930;-76
2021/07/10 09:16:00;;;;;;;;;;;19.60;99.90;;;;;;5094921;28;20226;-75
2021/07/10 09:18:35;;;;;;;;;;;19.90;99.90;;;;;;5095322;28;19928;-76
2021/07/10 09:21:01;;;;;;;;;;;20.00;99.90;;;;;;5094804;28;19935;-76
2021/07/10 09:23:30;;;;;;;;;;;20.20;99.90;;;;;;5095126;28;19924;-76
2021/07/10 09:26:13;;;;;;;;;;;20.20;99.90;;;;;;5095026;28;19928;-76
2021/07/10 09:28:40;;;;;;;;;;;20.20;99.90;;;;;;5094926;28;19924;-76
2021/07/10 09:31:12;;;;;;;;;;;20.20;99.90;;;;;;5095155;28;19935;-75
2021/07/10 09:33:39;;;;;;;;;;;20.20;99.90;;;;;;5095141;28;20256;-75
2021/07/10 09:36:06;;;;;;;;;;;20.40;99.90;;;;;;5094872;28;20348;-76
2021/07/10 09:38:34;;;;;;;;;;;20.50;99.90;;;;;;5095047;28;19935;-76
2021/07/10 09:41:02;;;;;;;;;;;20.50;99.90;;;;;;5094685;28;19924;-75
2021/07/10 09:43:29;;;;;;;;;;;20.60;99.90;;;;;;5096138;28;19934;-75
2021/07/10 09:45:57;;;;;;;;;;;20.70;99.90;;;;;;5098474;28;19924;-75
2021/07/10 09:48:26;;;;;;;;;;;20.90;99.90;;;;;;5098357;28;19924;-75
2021/07/10 09:51:08;;;;;;;;;;;21.00;99.90;;;;;;5098420;28;20340;-75
2021/07/10 09:53:36;;;;;;;;;;;21.20;99.90;;;;;;5098590;28;19924;-75
2021/07/10 09:56:09;;;;;;;;;;;21.20;99.90;;;;;;5098457;28;20256;-75
2021/07/10 09:58:36;;;;;;;;;;;21.30;99.90;;;;;;5098299;28;20410;-75
2021/07/10 10:01:18;;;;;;;;;;;21.40;99.90;;;;;;5098120;28;19924;-76
2021/07/10 10:03:45;;;;;;;;;;;21.40;99.90;;;;;;5097899;28;19970;-76
2021/07/10 10:06:28;;;;;;;;;;;21.50;99.90;;;;;;5098093;28;20271;-76
2021/07/10 10:08:56;;;;;;;;;;;21.60;99.90;;;;;;5098146;28;19930;-76
2021/07/10 10:11:23;;;;;;;;;;;21.60;99.90;;;;;;5098272;28;19924;-76
2021/07/10 10:13:49;;;;;;;;;;;21.60;99.90;;;;;;5097971;28;19934;-76
2021/07/10 10:16:16;;;;;;;;;;;21.50;99.90;;;;;;5098031;28;19924;-76
2021/07/10 10:18:43;;;;;;;;;;;21.50;99.90;;;;;;5098024;28;20015;-76
2021/07/10 10:21:10;;;;;;;;;;;21.50;99.90;;;;;;5097826;28;19924;-76
2021/07/10 10:23:37;;;;;;;;;;;21.50;99.90;;;;;;5097658;28;20352;-75
2021/07/10 10:26:05;;;;;;;;;;;21.40;99.90;;;;;;5097694;28;20355;-74
2021/07/10 10:28:33;;;;;;;;;;;21.30;99.90;;;;;;5097603;28;19967;-74
2021/07/10 10:31:00;;;;;;;;;;;21.10;99.90;;;;;;5097929;28;19924;-74
2021/07/10 10:33:27;;;;;;;;;;;20.90;99.90;;;;;;5097666;28;19924;-74
2021/07/10 10:35:54;;;;;;;;;;;20.60;99.90;;;;;;5097565;28;19924;-74
2021/07/10 10:38:21;;;;;;;;;;;20.40;99.90;;;;;;5097712;28;19928;-74
2021/07/10 10:40:48;;;;;;;;;;;20.20;99.90;;;;;;5097494;28;19931;-74
2021/07/10 10:43:16;;;;;;;;;;;20.00;99.90;;;;;;5097389;28;19924;-74
2021/07/10 10:45:43;;;;;;;;;;;19.90;99.90;;;;;;5097502;28;19924;-74
2021/07/10 10:48:10;;;;;;;;;;;19.80;99.90;;;;;;5097677;28;20244;-75
2021/07/10 10:50:37;;;;;;;;;;;19.70;99.90;;;;;;5097448;28;19935;-74
2021/07/10 10:53:04;;;;;;;;;;;19.50;99.90;;;;;;5097447;28;20260;-75
2021/07/10 10:55:35;;;;;;;;;;;19.50;99.90;;;;;;5096242;28;19935;-75
2021/07/10 10:58:02;;;;;;;;;;;19.50;99.90;;;;;;5096547;28;19928;-75
2021/07/10 11:00:34;;;;;;;;;;;19.40;99.90;;;;;;5097156;28;19924;-74
2021/07/10 11:03:01;;;;;;;;;;;19.40;99.90;;;;;;5096929;28;19934;-75
2021/07/10 11:05:35;;;;;;;;;;;19.30;99.90;;;;;;5096842;28;20348;-75
2021/07/10 11:08:21;;;;;;;;;;;19.30;99.90;;;;;;5096702;28;20392;-74
2021/07/10 11:10:48;;;;;;;;;;;19.20;99.90;;;;;;5096998;28;19924;-75
2021/07/10 11:13:26;;;;;;;;;;;19.20;99.90;;;;;;5096861;28;19924;-74
2021/07/10 11:16:06;;;;;;;;;;;19.30;99.90;;;;;;5091808;28;20348;-75
2021/07/10 11:18:48;;;;;;;;;;;19.50;99.90;;;;;;5096907;28;19939;-74
2021/07/10 11:21:27;;;;;;;;;;;19.60;99.90;;;;;;5096587;28;19924;-74
2021/07/10 11:23:54;;;;;;;;;;;19.90;99.90;;;;;;5096475;28;19934;-74
2021/07/10 11:26:21;;;;;;;;;;;20.00;99.90;;;;;;5096241;28;19924;-74
2021/07/10 11:28:54;;;;;;;;;;;20.10;99.90;;;;;;5096607;28;19928;-75
2021/07/10 11:31:24;;;;;;;;;;;20.20;99.90;;;;;;5096600;28;19989;-74
2021/07/10 11:33:55;;;;;;;;;;;20.30;99.90;;;;;;5096519;28;19924;-74
2021/07/10 11:36:40;;;;;;;;;;;20.20;99.90;;;;;;5096288;28;19931;-74
2021/07/10 11:39:22;;;;;;;;;;;20.10;99.90;;;;;;5082899;28;19931;-75
2021/07/10 11:41:49;;;;;;;;;;;20.00;99.90;;;;;;5096080;28;19930;-74
2021/07/10 11:44:16;;;;;;;;;;;19.90;99.90;;;;;;5096215;28;19925;-74
2021/07/10 11:47:02;;;;;;;;;;;19.80;99.90;;;;;;5095889;28;19924;-75
2021/07/10 11:49:40;;;;;;;;;;;19.70;99.90;;;;;;5096351;28;19928;-75
2021/07/10 11:52:08;;;;;;;;;;;19.60;99.90;;;;;;5096600;28;19924;-75
2021/07/10 11:54:35;;;;;;;;;;;19.60;99.90;;;;;;5096272;28;19924;-75
2021/07/10 11:57:01;;;;;;;;;;;19.50;99.90;;;;;;5095909;28;19924;-75
2021/07/10 11:59:28;;;;;;;;;;;19.50;99.90;;;;;;5095813;28;19927;-75
2021/07/10 12:01:55;;;;;;;;;;;19.50;99.90;;;;;;5095864;28;19923;-75
2021/07/10 12:04:22;;;;;;;;;;;19.50;99.90;;;;;;5096108;28;19924;-75
2021/07/10 12:06:50;;;;;;;;;;;19.50;99.90;;;;;;5095517;28;19924;-75
2021/07/10 12:09:17;;;;;;;;;;;19.60;99.90;;;;;;5095784;28;19924;-75
2021/07/10 12:11:44;;;;;;;;;;;19.60;99.90;;;;;;5096134;28;19934;-74
2021/07/10 12:14:11;;;;;;;;;;;19.60;99.90;;;;;;5095785;28;19935;-75
2021/07/10 12:16:37;;;;;;;;;;;19.70;99.90;;;;;;5095568;28;20375;-79
2021/07/10 12:19:04;;;;;;;;;;;19.80;99.90;;;;;;5096296;28;19930;-74
2021/07/10 12:21:31;;;;;;;;;;;19.90;99.90;;;;;;5096373;28;19924;-78
2021/07/10 12:24:00;;;;;;;;;;;20.00;99.90;;;;;;5095566;28;19938;-74
2021/07/10 12:26:27;;;;;;;;;;;20.20;99.90;;;;;;5095537;28;19977;-74
2021/07/10 12:28:54;;;;;;;;;;;20.50;99.90;;;;;;5095421;28;19934;-74
2021/07/10 12:31:22;;;;;;;;;;;20.70;99.90;;;;;;5095417;28;19936;-74
2021/07/10 12:33:50;;;;;;;;;;;20.70;99.90;;;;;;5095520;28;19935;-74
2021/07/10 12:36:18;;;;;;;;;;;20.70;99.90;;;;;;5095237;28;19924;-74
2021/07/10 12:39:01;;;;;;;;;;;20.70;99.90;;;;;;5095253;28;20348;-74
2021/07/10 12:41:32;;;;;;;;;;;20.60;99.90;;;;;;5095120;28;19993;-74
2021/07/10 12:44:19;;;;;;;;;;;20.50;99.90;;;;;;5095175;28;19924;-74
2021/07/10 12:46:49;;;;;;;;;;;20.30;99.90;;;;;;5095099;28;19934;-74
2021/07/10 12:49:16;;;;;;;;;;;20.20;99.90;;;;;;5095159;28;19935;-74
2021/07/10 12:51:43;;;;;;;;;;;20.10;99.90;;;;;;5095235;28;19924;-73
2021/07/10 12:54:24;;;;;;;;;;;19.90;99.90;;;;;;5095156;28;19924;-73
2021/07/10 12:56:53;;;;;;;;;;;19.80;99.90;;;;;;5094928;28;20344;-74
2021/07/10 12:59:20;;;;;;;;;;;19.60;99.90;;;;;;5094982;28;19924;-74
2021/07/10 13:01:48;;;;;;;;;;;19.60;99.90;;;;;;5095057;28;19924;-74
2021/07/10 13:04:15;;;;;;;;;;;19.40;99.90;;;;;;5095144;28;19924;-73
2021/07/10 13:06:43;;;;;;;;;;;19.30;99.90;;;;;;5094858;28;19935;-74
2021/07/10 13:09:09;;;;;;;;;;;19.20;99.90;;;;;;5095037;28;19935;-74
2021/07/10 13:11:45;;;;;;;;;;;19.10;99.90;;;;;;5094857;28;19924;-73
2021/07/10 13:14:20;;;;;;;;;;;19.00;99.90;;;;;;5095109;28;19935;-74
2021/07/10 13:16:47;;;;;;;;;;;18.90;99.90;;;;;;5093886;28;19924;-73
2021/07/10 13:19:14;;;;;;;;;;;18.80;99.90;;;;;;5097837;28;19924;-73
2021/07/10 13:21:40;;;;;;;;;;;18.80;99.90;;;;;;5099182;28;20237;-74
2021/07/10 13:24:08;;;;;;;;;;;18.80;99.90;;;;;;5098933;28;19924;-73
2021/07/10 13:26:35;;;;;;;;;;;18.80;99.90;;;;;;5098923;28;19934;-73
2021/07/10 13:29:03;;;;;;;;;;;18.80;99.90;;;;;;5098968;28;19928;-73
2021/07/10 13:31:31;;;;;;;;;;;18.90;99.90;;;;;;5098879;28;19924;-73
2021/07/10 13:33:59;;;;;;;;;;;19.00;99.90;;;;;;5098886;28;19932;-73
2021/07/10 13:36:26;;;;;;;;;;;19.10;99.90;;;;;;5098979;28;19935;-73
2021/07/10 13:38:53;;;;;;;;;;;19.20;99.90;;;;;;5098662;28;19923;-73
2021/07/10 13:41:21;;;;;;;;;;;19.40;99.90;;;;;;5098451;28;19931;-74
2021/07/10 13:44:01;;;;;;;;;;;19.60;99.90;;;;;;5098444;28;19928;-73
2021/07/10 13:46:28;;;;;;;;;;;19.80;99.90;;;;;;5098572;28;19939;-74
2021/07/10 13:48:57;;;;;;;;;;;19.90;99.90;;;;;;5098856;28;19997;-73
2021/07/10 13:51:24;;;;;;;;;;;20.00;99.90;;;;;;5098631;28;19950;-74
2021/07/10 13:53:51;;;;;;;;;;;20.10;99.90;;;;;;5098898;28;19937;-72
2021/07/10 13:56:17;;;;;;;;;;;20.10;99.90;;;;;;5098529;28;19924;-75
2021/07/10 13:58:57;;;;;;;;;;;20.10;99.90;;;;;;5098315;28;19924;-76
2021/07/10 14:01:24;;;;;;;;;;;20.10;99.90;;;;;;5098430;28;19931;-78
2021/07/10 14:03:51;;;;;;;;;;;20.20;99.90;;;;;;5098227;28;19935;-79
2021/07/10 14:06:19;;;;;;;;;;;20.20;99.90;;;;;;5098453;28;19969;-76
2021/07/10 14:08:46;;;;;;;;;;;20.30;99.90;;;;;;5098085;28;19931;-76
2021/07/10 14:11:13;;;;;;;;;;;20.40;99.90;;;;;;5098226;28;19924;-76
2021/07/10 14:13:40;;;;;;;;;;;20.50;99.90;;;;;;5098075;28;19928;-75
2021/07/10 14:16:06;;;;;;;;;;;20.50;99.90;;;;;;5098130;28;20344;-80
2021/07/10 14:18:33;;;;;;;;;;;20.60;99.90;;;;;;5098059;28;19930;-79
2021/07/10 14:21:00;;;;;;;;;;;20.60;99.90;;;;;;5097853;28;19928;-77